Portada
METAR-TAF:

METAR-TAF

Aeroports :

Memphis, Tennessee, Estats Units d'Amèrica

latitud: 35-03-40N, longitud: 089-59-06W, altitud: 101 m

Observació

L'informe es va fer fa 30 minuts, a les 15:54 UTC
Vent 8 kt del Est, variant entre Nord-Est i Est/Sud-Est
Temperatura 25°C
Humitat 36%
Pressió 1024 hPa
Visibilitat: 16.1 km
Escasses núvols a una alçada de 25000 ft

METAR: KMEM 011554Z 08008KT 040V120 10SM FEW250 25/09 A3023 RMK AO2 SLP232 T02500094

Hora: 11:24 (16:24 UTC)

Pronòstic

L'informe es va fer fa 1 hora i 0 minuts, a les 15:24 UTC
Pronòstic vàlid del 01 a les 15 UTC al 02 a les 18 UTC
Vent 10 kt del Est
Visibilitat: 10 km
Escasses núvols a una alçada de 25000 ft
A partir de les 02 a les 0300 UTC
Vent 5 kt del Sud-Est
Visibilitat: 10 km
Cel clar
A partir de les 02 a les 1500 UTC
Vent 5 kt del Sud
Visibilitat: 10 km
Cel clar

TAF: KMEM 011524Z 0115/0218 08010KT P6SM FEW250 FM020300 13005KT P6SM SKC FM021500 18005KT P6SM SKC

Observacions i pronòstics meteorològics de més de 4000 aeroports (METAR i TAF).

Les estacions disponibles són els punts grocs i vermells al mapa.

Posi el ratolí al punt desitjat per veure el nom de l'estació.

Feu clic per veure les observacions i els pronòstics meteorològics.

Per canviar el mapa: feu clic els botons verds amb una creu de color negre per apropar; al botó verd amb un guió per allunyar la imatge; o en les fletxes verdes per a mapes adjacents.


METAR-TAF: